Ops Hamburg — A8VS9 — position and weather

sailwx.info

Track history (hours):
 
Tides and Currents Weather Stations Pressure Air Temp Water Temp Dewpoint Dewpoint Depression Visibility Wind Speed Wind Dir Waves Ship Positions

Ops Hamburg

Last reported at 2014-Oct-26 20:10 UTC. Time now 2014-Oct-31 07:02 UTC.
Position N 35°43' W 000°38'.

Length 148 m; draft 7.9 m.

Type: Cargo ship. MMSI: 636092040.

Date/timePositionNaut miles runAvg speedWind from/ knotsBaromVisibWave heightAir tempDewpointWater temp
2014-Oct-26 20:10N 35°43' W 000°38'0 0.0
2014-Oct-26 19:28N 35°43' W 000°38'0 0.0
2014-Oct-26 17:23N 35°43' W 000°38'0 0.0
2014-Oct-26 15:28N 35°43' W 000°38'0 0.0
2014-Oct-26 14:28N 35°43' W 000°38'0 0.0
2014-Oct-26 13:22N 35°43' W 000°38'0 0.0
2014-Oct-25 18:05N 35°43' W 000°38'0 0.0
2014-Oct-25 17:29N 35°43' W 000°38'0 0.0
2014-Oct-25 16:22N 35°43' W 000°38'0 0.0
2014-Oct-25 15:10N 35°43' W 000°38'0 0.0
2014-Oct-25 14:28N 35°43' W 000°38'0 0.0
2014-Oct-25 10:10N 35°43' W 000°38'0 0.0
2014-Oct-25 09:28N 35°43' W 000°38'0 0.0
2014-Oct-25 08:28N 35°43' W 000°38'0 0.0
2014-Oct-25 07:28N 35°43' W 000°38'0 0.0
2014-Oct-25 05:22N 35°43' W 000°38'0 0.0
2014-Oct-25 04:22N 35°43' W 000°38'0 0.0
2014-Oct-25 03:10N 35°43' W 000°38'0 0.0
2014-Oct-25 02:22N 35°43' W 000°38'0 0.0
2014-Oct-25 01:28N 35°43' W 000°38'0 0.0
2014-Oct-25 00:28N 35°43' W 000°38'0 0.0
2014-Oct-24 23:22N 35°43' W 000°38'0 0.0
2014-Oct-24 22:22N 35°43' W 000°38'0 0.0
2014-Oct-24 20:28N 35°43' W 000°38'0 0.0
2014-Oct-24 19:28N 35°43' W 000°38'0 0.0
2014-Oct-24 18:28N 35°43' W 000°38'0 0.0
2014-Oct-24 16:22N 35°43' W 000°38'0 0.0
2014-Oct-24 15:33N 35°43' W 000°38'2 1.5
2014-Oct-24 14:29N 35°44' W 000°38'1 0.4
2014-Oct-24 12:28N 35°45' W 000°38'0 0.1
2014-Oct-24 11:22N 35°45' W 000°39'0 0.1
2014-Oct-24 09:33N 35°45' W 000°39'0 0.0
2014-Oct-24 08:11N 35°45' W 000°39'0 0.0
2014-Oct-24 07:29N 35°45' W 000°39'0 0.0
2014-Oct-24 04:29N 35°45' W 000°39'0 0.0
2014-Oct-24 01:30N 35°45' W 000°39'0 0.0
2014-Oct-24 00:30N 35°45' W 000°39'0 0.0
2014-Oct-23 23:11N 35°45' W 000°39'0 0.0
2014-Oct-23 22:23N 35°45' W 000°39'0 0.0
2014-Oct-23 21:23N 35°45' W 000°39'0 0.0
2014-Oct-23 20:23N 35°45' W 000°39'221 4.9
2014-Oct-21 23:12N 35°59' W 005°11'813.0
2014-Oct-21 22:33N 35°58' W 005°21'8 0.2
2014-Oct-20 09:07N 35°57' W 005°32'5 8.8
2014-Oct-20 08:34N 35°59' W 005°27'1111.4
2014-Oct-20 07:34N 35°59' W 005°13'  
Track history (hours):
 
Tides and Currents Weather Stations Pressure Air Temp Water Temp Dewpoint Dewpoint Depression Visibility Wind Speed Wind Dir Waves Ship Positions

Ops Hamburg

Last reported at 2014-Oct-26 20:10 UTC. Time now 2014-Oct-31 07:02 UTC.
Position N 35°43' W 000°38'.

Length 148 m; draft 7.9 m.

Type: Cargo ship. MMSI: 636092040.

Date/timePositionNaut miles runAvg speedWind from/ knotsBaromVisibWave heightAir tempDewpointWater temp
2014-Oct-26 20:10N 35°43' W 000°38'0 0.0
2014-Oct-26 19:28N 35°43' W 000°38'0 0.0
2014-Oct-26 17:23N 35°43' W 000°38'0 0.0
2014-Oct-26 15:28N 35°43' W 000°38'0 0.0
2014-Oct-26 14:28N 35°43' W 000°38'0 0.0
2014-Oct-26 13:22N 35°43' W 000°38'0 0.0
2014-Oct-25 18:05N 35°43' W 000°38'0 0.0
2014-Oct-25 17:29N 35°43' W 000°38'0 0.0
2014-Oct-25 16:22N 35°43' W 000°38'0 0.0
2014-Oct-25 15:10N 35°43' W 000°38'0 0.0
2014-Oct-25 14:28N 35°43' W 000°38'0 0.0
2014-Oct-25 10:10N 35°43' W 000°38'0 0.0
2014-Oct-25 09:28N 35°43' W 000°38'0 0.0
2014-Oct-25 08:28N 35°43' W 000°38'0 0.0
2014-Oct-25 07:28N 35°43' W 000°38'0 0.0
2014-Oct-25 05:22N 35°43' W 000°38'0 0.0
2014-Oct-25 04:22N 35°43' W 000°38'0 0.0
2014-Oct-25 03:10N 35°43' W 000°38'0 0.0
2014-Oct-25 02:22N 35°43' W 000°38'0 0.0
2014-Oct-25 01:28N 35°43' W 000°38'0 0.0
2014-Oct-25 00:28N 35°43' W 000°38'0 0.0
2014-Oct-24 23:22N 35°43' W 000°38'0 0.0
2014-Oct-24 22:22N 35°43' W 000°38'0 0.0
2014-Oct-24 20:28N 35°43' W 000°38'0 0.0
2014-Oct-24 19:28N 35°43' W 000°38'0 0.0
2014-Oct-24 18:28N 35°43' W 000°38'0 0.0
2014-Oct-24 16:22N 35°43' W 000°38'0 0.0
2014-Oct-24 15:33N 35°43' W 000°38'2 1.5
2014-Oct-24 14:29N 35°44' W 000°38'1 0.4
2014-Oct-24 12:28N 35°45' W 000°38'0 0.1
2014-Oct-24 11:22N 35°45' W 000°39'0 0.1
2014-Oct-24 09:33N 35°45' W 000°39'0 0.0
2014-Oct-24 08:11N 35°45' W 000°39'0 0.0
2014-Oct-24 07:29N 35°45' W 000°39'0 0.0
2014-Oct-24 04:29N 35°45' W 000°39'0 0.0
2014-Oct-24 01:30N 35°45' W 000°39'0 0.0
2014-Oct-24 00:30N 35°45' W 000°39'0 0.0
2014-Oct-23 23:11N 35°45' W 000°39'0 0.0
2014-Oct-23 22:23N 35°45' W 000°39'0 0.0
2014-Oct-23 21:23N 35°45' W 000°39'0 0.0
2014-Oct-23 20:23N 35°45' W 000°39'221 4.9
2014-Oct-21 23:12N 35°59' W 005°11'813.0
2014-Oct-21 22:33N 35°58' W 005°21'8 0.2
2014-Oct-20 09:07N 35°57' W 005°32'5 8.8
2014-Oct-20 08:34N 35°59' W 005°27'1111.4
2014-Oct-20 07:34N 35°59' W 005°13'  

Dump ship's entire track history